Time;durP1;ratioP1;P1;durP2;ratioP2;P2;SDS_P1;SDS_P2;PMS_P1;PMS_P2;Temp;Humidity;BMP_temperature;BMP_pressure;BME280_temperature;BME280_humidity;BME280_pressure;Samples;Min_cycle;Max_cycle;Signal;HPM_P1;HPM_P2
2022/04/02 00:00:28;;;;;;;;;;;4.00;99.90;;;;;;5035231;28;19920;-77
2022/04/02 00:02:54;;;;;;;;;;;4.00;99.90;;;;;;5019074;28;19931;-77
2022/04/02 00:05:19;;;;;;;;;;;4.00;99.90;;;;;;5035048;28;20007;-77
2022/04/02 00:07:45;;;;;;;;;;;4.00;99.90;;;;;;5052272;28;20012;-77
2022/04/02 00:10:11;;;;;;;;;;;4.00;99.90;;;;;;5035181;28;19921;-80
2022/04/02 00:12:36;;;;;;;;;;;4.00;99.90;;;;;;5052843;28;19921;-77
2022/04/02 00:15:02;;;;;;;;;;;4.00;99.90;;;;;;5052358;28;19928;-77
2022/04/02 00:17:28;;;;;;;;;;;4.00;99.90;;;;;;5034603;28;20624;-77
2022/04/02 00:19:54;;;;;;;;;;;4.00;99.90;;;;;;5052829;28;19986;-77
2022/04/02 00:22:19;;;;;;;;;;;4.00;99.90;;;;;;5051513;28;19927;-77
2022/04/02 00:24:46;;;;;;;;;;;4.00;99.90;;;;;;5016045;28;19928;-77
2022/04/02 00:27:11;;;;;;;;;;;4.00;99.90;;;;;;5052229;28;19921;-81
2022/04/02 00:29:38;;;;;;;;;;;4.00;99.90;;;;;;5034492;28;19928;-77
2022/04/02 00:32:07;;;;;;;;;;;4.00;99.90;;;;;;5018682;28;19971;-78
2022/04/02 00:34:33;;;;;;;;;;;4.00;99.90;;;;;;5018128;28;19982;-76
2022/04/02 00:36:58;;;;;;;;;;;4.00;99.90;;;;;;5034826;28;19928;-77
2022/04/02 00:39:24;;;;;;;;;;;4.00;99.90;;;;;;5052147;28;19920;-77
2022/04/02 00:41:49;;;;;;;;;;;4.00;99.90;;;;;;5052635;28;20388;-77
2022/04/02 00:44:21;;;;;;;;;;;4.00;99.90;;;;;;5034211;28;19977;-77
2022/04/02 00:46:47;;;;;;;;;;;3.90;99.90;;;;;;5052508;28;20361;-76
2022/04/02 00:49:13;;;;;;;;;;;3.80;99.90;;;;;;5034098;28;19927;-77
2022/04/02 00:51:43;;;;;;;;;;;3.90;99.90;;;;;;5052054;28;19920;-77
2022/04/02 00:54:11;;;;;;;;;;;3.80;99.90;;;;;;5035093;28;19924;-78
2022/04/02 00:56:40;;;;;;;;;;;3.80;99.90;;;;;;5051860;28;19928;-77
2022/04/02 00:59:06;;;;;;;;;;;3.70;99.90;;;;;;5033776;28;19934;-77
2022/04/02 01:01:32;;;;;;;;;;;3.70;99.90;;;;;;5038437;28;19927;-77
2022/04/02 01:04:02;;;;;;;;;;;3.60;99.90;;;;;;5038893;28;20424;-77
2022/04/02 01:06:28;;;;;;;;;;;3.60;99.90;;;;;;5056017;28;20016;-77
2022/04/02 01:08:54;;;;;;;;;;;3.60;99.90;;;;;;5038517;28;19921;-77
2022/04/02 01:11:20;;;;;;;;;;;3.60;99.90;;;;;;5037589;28;20407;-76
2022/04/02 01:13:45;;;;;;;;;;;3.50;99.90;;;;;;5038343;28;19974;-79
2022/04/02 01:16:11;;;;;;;;;;;3.60;99.90;;;;;;5037824;28;19921;-77
2022/04/02 01:18:36;;;;;;;;;;;3.50;99.90;;;;;;5038140;28;19924;-77
2022/04/02 01:21:02;;;;;;;;;;;3.40;99.90;;;;;;5038043;28;20011;-75
2022/04/02 01:23:29;;;;;;;;;;;3.40;99.90;;;;;;5037993;28;19920;-77
2022/04/02 01:26:01;;;;;;;;;;;3.30;99.90;;;;;;5022103;28;19920;-77
2022/04/02 01:28:33;;;;;;;;;;;3.30;99.90;;;;;;5037766;28;19921;-77
2022/04/02 01:31:03;;;;;;;;;;;3.20;99.90;;;;;;5036553;28;20011;-77
2022/04/02 01:33:29;;;;;;;;;;;3.10;99.90;;;;;;5037516;28;20018;-77
2022/04/02 01:35:58;;;;;;;;;;;3.10;99.90;;;;;;5055415;28;20448;-77
2022/04/02 01:38:24;;;;;;;;;;;3.00;99.90;;;;;;5037661;28;20289;-76
2022/04/02 01:40:50;;;;;;;;;;;3.00;99.90;;;;;;5037625;28;19921;-77
2022/04/02 01:43:15;;;;;;;;;;;2.90;99.90;;;;;;5037250;28;19989;-76
2022/04/02 01:45:41;;;;;;;;;;;2.90;99.90;;;;;;5037100;28;19921;-77
2022/04/02 01:48:06;;;;;;;;;;;2.90;99.90;;;;;;5055199;28;19944;-77
2022/04/02 01:50:32;;;;;;;;;;;2.90;99.90;;;;;;5054811;28;19932;-76
2022/04/02 01:52:58;;;;;;;;;;;2.90;99.90;;;;;;5037109;28;20414;-77
2022/04/02 01:55:23;;;;;;;;;;;2.80;99.90;;;;;;5037518;28;19925;-78
2022/04/02 01:57:49;;;;;;;;;;;2.80;99.90;;;;;;5054779;28;19920;-77
2022/04/02 02:00:15;;;;;;;;;;;2.80;99.90;;;;;;5020842;28;19927;-77
2022/04/02 02:02:41;;;;;;;;;;;2.80;99.90;;;;;;5037099;28;19920;-77
2022/04/02 02:05:06;;;;;;;;;;;2.70;99.90;;;;;;5055066;28;20368;-77
2022/04/02 02:07:32;;;;;;;;;;;2.70;99.90;;;;;;5054899;28;19975;-79
2022/04/02 02:09:58;;;;;;;;;;;2.80;99.90;;;;;;5055117;28;19928;-77
2022/04/02 02:12:23;;;;;;;;;;;2.80;99.90;;;;;;5035635;28;19925;-78
2022/04/02 02:14:49;;;;;;;;;;;2.80;99.90;;;;;;5053409;28;20365;-77
2022/04/02 02:17:15;;;;;;;;;;;2.80;99.90;;;;;;5055099;28;20326;-76
2022/04/02 02:19:41;;;;;;;;;;;2.80;99.90;;;;;;5036604;28;19921;-76
2022/04/02 02:22:06;;;;;;;;;;;2.90;99.90;;;;;;5054729;28;19966;-76
2022/04/02 02:24:32;;;;;;;;;;;2.90;99.90;;;;;;5035056;28;19966;-78
2022/04/02 02:26:58;;;;;;;;;;;2.90;99.90;;;;;;5036477;28;19928;-76
2022/04/02 02:29:23;;;;;;;;;;;3.00;99.90;;;;;;5054524;28;20392;-80
2022/04/02 02:31:49;;;;;;;;;;;3.00;99.90;;;;;;5036558;28;19921;-77
2022/04/02 02:36:58;;;;;;;;;;;3.00;99.90;;;;;;5054180;28;20380;-76
2022/04/02 02:39:24;;;;;;;;;;;3.00;99.90;;;;;;5036529;28;19928;-80
2022/04/02 02:41:50;;;;;;;;;;;2.90;99.90;;;;;;5053748;28;19929;-76
2022/04/02 02:44:16;;;;;;;;;;;2.90;99.90;;;;;;5054019;28;19924;-75
2022/04/02 02:46:41;;;;;;;;;;;2.80;99.90;;;;;;5019653;28;20369;-76
2022/04/02 02:49:07;;;;;;;;;;;2.80;99.90;;;;;;5053410;28;19928;-79
2022/04/02 02:51:32;;;;;;;;;;;2.80;99.90;;;;;;5053684;28;19931;-76
2022/04/02 02:53:58;;;;;;;;;;;2.70;99.90;;;;;;5051145;28;19979;-75
2022/04/02 02:56:23;;;;;;;;;;;2.70;99.90;;;;;;5035672;28;19925;-76
2022/04/02 02:58:49;;;;;;;;;;;2.70;99.90;;;;;;5053886;28;19920;-77
2022/04/02 03:01:14;;;;;;;;;;;2.70;99.90;;;;;;5054047;28;20011;-77
2022/04/02 03:03:40;;;;;;;;;;;2.70;99.90;;;;;;5035513;28;19920;-77
2022/04/02 03:06:06;;;;;;;;;;;2.60;99.90;;;;;;5053633;28;19929;-76
2022/04/02 03:08:31;;;;;;;;;;;2.60;99.90;;;;;;5035775;28;19970;-77
2022/04/02 03:10:58;;;;;;;;;;;2.60;99.90;;;;;;5035828;28;19927;-77
2022/04/02 03:13:23;;;;;;;;;;;2.50;99.90;;;;;;5035715;28;19971;-77
2022/04/02 03:15:49;;;;;;;;;;;2.50;99.90;;;;;;5053225;28;19921;-77
2022/04/02 03:18:15;;;;;;;;;;;2.50;99.90;;;;;;5035856;28;19920;-77
2022/04/02 03:20:41;;;;;;;;;;;2.50;99.90;;;;;;5035690;28;19972;-77
2022/04/02 03:23:06;;;;;;;;;;;2.30;99.90;;;;;;5033073;28;20376;-77
2022/04/02 03:25:32;;;;;;;;;;;2.40;99.90;;;;;;5031965;28;19982;-77
2022/04/02 03:27:58;;;;;;;;;;;2.30;99.90;;;;;;5034288;28;20396;-76
2022/04/02 03:30:24;;;;;;;;;;;2.30;99.90;;;;;;5035045;28;20388;-78
2022/04/02 03:32:51;;;;;;;;;;;2.30;99.90;;;;;;5035146;28;19925;-77
2022/04/02 03:35:18;;;;;;;;;;;2.20;99.90;;;;;;5035054;28;19921;-77
2022/04/02 03:37:44;;;;;;;;;;;2.30;99.90;;;;;;5034666;28;20373;-78
2022/04/02 03:40:14;;;;;;;;;;;2.20;99.90;;;;;;5052415;28;19974;-77
2022/04/02 03:42:41;;;;;;;;;;;2.30;99.90;;;;;;5052640;28;19921;-77
2022/04/02 03:45:07;;;;;;;;;;;2.40;99.90;;;;;;5035142;28;19928;-77
2022/04/02 03:47:33;;;;;;;;;;;2.40;99.90;;;;;;5052102;28;19932;-77
2022/04/02 03:49:58;;;;;;;;;;;2.40;99.90;;;;;;5035314;28;19929;-77
2022/04/02 03:52:24;;;;;;;;;;;2.50;99.90;;;;;;5052620;28;19920;-77
2022/04/02 03:54:50;;;;;;;;;;;2.50;99.90;;;;;;5034935;28;19920;-80
2022/04/02 03:57:16;;;;;;;;;;;2.50;99.90;;;;;;5052411;28;19932;-77
2022/04/02 03:59:42;;;;;;;;;;;2.50;99.90;;;;;;5034633;28;19927;-77
2022/04/02 04:02:08;;;;;;;;;;;2.50;99.90;;;;;;5034948;28;19983;-76
2022/04/02 04:04:34;;;;;;;;;;;2.60;99.90;;;;;;5018171;28;19960;-77
2022/04/02 04:07:00;;;;;;;;;;;2.50;99.90;;;;;;5035200;28;19920;-76
2022/04/02 04:09:26;;;;;;;;;;;2.60;99.90;;;;;;5052741;28;19924;-77
2022/04/02 04:11:52;;;;;;;;;;;2.60;99.90;;;;;;5034252;28;20629;-77
2022/04/02 04:14:19;;;;;;;;;;;2.50;99.90;;;;;;5034534;28;19970;-77
2022/04/02 04:16:45;;;;;;;;;;;2.50;99.90;;;;;;5052334;28;19927;-76
2022/04/02 04:19:11;;;;;;;;;;;2.50;99.90;;;;;;5033850;28;20281;-77
2022/04/02 04:21:36;;;;;;;;;;;2.50;99.90;;;;;;5034942;28;19921;-77
2022/04/02 04:24:03;;;;;;;;;;;2.40;99.90;;;;;;5033405;28;19921;-77
2022/04/02 04:26:29;;;;;;;;;;;2.40;99.90;;;;;;5018412;28;19982;-77
2022/04/02 04:28:54;;;;;;;;;;;2.40;99.90;;;;;;5034367;28;19964;-77
2022/04/02 04:31:20;;;;;;;;;;;2.30;99.90;;;;;;5034997;28;20261;-77
2022/04/02 04:33:46;;;;;;;;;;;2.30;99.90;;;;;;5050038;28;20361;-77
2022/04/02 04:36:12;;;;;;;;;;;2.20;99.90;;;;;;5023816;28;19991;-77
2022/04/02 04:38:38;;;;;;;;;;;2.30;99.90;;;;;;5041035;28;20011;-77
2022/04/02 04:41:03;;;;;;;;;;;2.20;99.90;;;;;;5041202;28;19921;-78
2022/04/02 04:43:30;;;;;;;;;;;2.10;99.90;;;;;;5041340;28;20277;-77
2022/04/02 04:45:55;;;;;;;;;;;2.10;99.90;;;;;;5040718;28;19932;-77
2022/04/02 04:48:21;;;;;;;;;;;2.10;99.90;;;;;;5058742;28;19928;-77
2022/04/02 04:50:47;;;;;;;;;;;1.90;99.90;;;;;;5024592;28;19921;-76
2022/04/02 04:53:13;;;;;;;;;;;2.00;99.90;;;;;;5059260;28;20009;-77
2022/04/02 04:55:38;;;;;;;;;;;2.10;99.90;;;;;;5045315;28;19968;-78
2022/04/02 04:58:04;;;;;;;;;;;2.00;99.90;;;;;;5042415;28;20369;-77
2022/04/02 05:00:29;;;;;;;;;;;1.90;99.90;;;;;;5041171;28;20432;-77
2022/04/02 05:02:55;;;;;;;;;;;1.90;99.90;;;;;;5040742;28;19924;-77
2022/04/02 05:05:21;;;;;;;;;;;1.90;99.90;;;;;;5058807;28;20361;-76
2022/04/02 05:07:46;;;;;;;;;;;1.90;99.90;;;;;;5041265;28;19971;-77
2022/04/02 05:10:12;;;;;;;;;;;1.80;99.90;;;;;;5040820;28;20280;-77
2022/04/02 05:12:38;;;;;;;;;;;1.80;99.90;;;;;;5058776;28;19927;-82
2022/04/02 05:15:04;;;;;;;;;;;1.80;99.90;;;;;;5040353;28;19932;-78
2022/04/02 05:17:33;;;;;;;;;;;1.80;99.90;;;;;;5037217;28;20377;-80
2022/04/02 05:19:59;;;;;;;;;;;1.80;99.90;;;;;;5051359;28;19921;-76
2022/04/02 05:22:24;;;;;;;;;;;1.80;99.90;;;;;;5033826;28;19928;-77
2022/04/02 05:24:50;;;;;;;;;;;1.80;99.90;;;;;;5017527;28;19967;-78
2022/04/02 05:27:16;;;;;;;;;;;1.80;99.90;;;;;;5040741;28;20424;-77
2022/04/02 05:29:41;;;;;;;;;;;1.90;99.90;;;;;;5032528;28;19968;-77
2022/04/02 05:32:07;;;;;;;;;;;1.90;99.90;;;;;;5034364;28;20403;-76
2022/04/02 05:34:33;;;;;;;;;;;1.90;99.90;;;;;;5036113;28;19938;-77
2022/04/02 05:36:58;;;;;;;;;;;2.00;99.90;;;;;;5040834;28;19963;-77
2022/04/02 05:39:24;;;;;;;;;;;2.10;99.90;;;;;;5041112;28;19921;-77
2022/04/02 05:41:51;;;;;;;;;;;2.10;99.90;;;;;;5041413;28;19943;-77
2022/04/02 05:44:16;;;;;;;;;;;2.10;99.90;;;;;;5038150;28;20361;-77
2022/04/02 05:46:42;;;;;;;;;;;2.10;99.90;;;;;;5034824;28;19928;-80
2022/04/02 05:49:08;;;;;;;;;;;2.20;99.90;;;;;;5055719;28;19924;-76
2022/04/02 05:51:33;;;;;;;;;;;2.20;99.90;;;;;;5055777;28;19925;-77
2022/04/02 05:53:59;;;;;;;;;;;2.20;99.90;;;;;;5020996;28;19921;-77
2022/04/02 05:56:26;;;;;;;;;;;2.10;99.90;;;;;;5021509;28;19928;-77
2022/04/02 05:58:52;;;;;;;;;;;2.10;99.90;;;;;;5037476;28;19928;-77
2022/04/02 06:01:18;;;;;;;;;;;2.10;99.90;;;;;;5055132;28;20273;-77
2022/04/02 06:03:44;;;;;;;;;;;2.10;99.90;;;;;;5037563;28;19920;-80
2022/04/02 06:06:10;;;;;;;;;;;2.20;99.90;;;;;;5037834;28;20319;-75
2022/04/02 06:08:35;;;;;;;;;;;2.10;99.90;;;;;;5037346;28;19920;-77
2022/04/02 06:11:01;;;;;;;;;;;2.10;99.90;;;;;;5036714;28;19956;-76
2022/04/02 06:13:26;;;;;;;;;;;2.10;99.90;;;;;;5015516;28;19962;-76
2022/04/02 06:15:52;;;;;;;;;;;2.20;99.90;;;;;;5027638;28;19932;-76
2022/04/02 06:18:18;;;;;;;;;;;2.20;99.90;;;;;;5020005;28;19920;-78
2022/04/02 06:20:44;;;;;;;;;;;2.20;99.90;;;;;;5036654;28;19920;-78
2022/04/02 06:23:10;;;;;;;;;;;2.30;99.90;;;;;;5036634;28;19921;-75
2022/04/02 06:25:35;;;;;;;;;;;2.30;99.90;;;;;;5021049;28;20421;-75
2022/04/02 06:28:01;;;;;;;;;;;2.30;99.90;;;;;;5049974;28;20285;-76
2022/04/02 06:30:27;;;;;;;;;;;2.40;99.90;;;;;;5015119;28;19921;-75
2022/04/02 06:32:52;;;;;;;;;;;2.30;99.90;;;;;;5027344;28;20323;-75
2022/04/02 06:35:19;;;;;;;;;;;2.40;99.90;;;;;;5036908;28;19928;-78
2022/04/02 06:37:45;;;;;;;;;;;2.40;99.90;;;;;;5036732;28;19920;-78
2022/04/02 06:40:11;;;;;;;;;;;2.40;99.90;;;;;;5032939;28;19921;-76
2022/04/02 06:42:37;;;;;;;;;;;2.50;99.90;;;;;;5034260;28;19928;-78
2022/04/02 06:45:03;;;;;;;;;;;2.50;99.90;;;;;;5019998;28;19921;-77
2022/04/02 06:47:30;;;;;;;;;;;2.60;99.90;;;;;;5036650;28;19943;-77
2022/04/02 06:49:56;;;;;;;;;;;2.60;99.90;;;;;;5036687;28;19990;-77
2022/04/02 06:52:22;;;;;;;;;;;2.70;99.90;;;;;;5019640;28;19920;-76
2022/04/02 06:54:48;;;;;;;;;;;2.80;99.90;;;;;;5036435;28;20392;-79
2022/04/02 06:57:20;;;;;;;;;;;2.80;99.90;;;;;;5003976;28;19924;-76
2022/04/02 06:59:49;;;;;;;;;;;2.80;99.90;;;;;;5054031;28;19932;-76
2022/04/02 07:02:16;;;;;;;;;;;2.80;99.90;;;;;;5036045;28;20006;-84
2022/04/02 07:04:42;;;;;;;;;;;3.00;99.90;;;;;;5020062;28;19928;-76
2022/04/02 07:07:08;;;;;;;;;;;3.00;99.90;;;;;;5042187;28;19921;-76
2022/04/02 07:09:34;;;;;;;;;;;3.10;99.90;;;;;;5036479;28;20254;-76
2022/04/02 07:11:59;;;;;;;;;;;3.20;99.90;;;;;;5053903;28;20007;-76
2022/04/02 07:14:25;;;;;;;;;;;3.30;99.90;;;;;;5036713;28;19927;-76
2022/04/02 07:16:50;;;;;;;;;;;3.40;99.90;;;;;;5053233;28;20234;-80
2022/04/02 07:19:25;;;;;;;;;;;3.50;99.90;;;;;;5053946;28;19921;-76
2022/04/02 07:21:52;;;;;;;;;;;3.80;99.90;;;;;;5034015;28;19943;-81
2022/04/02 07:24:19;;;;;;;;;;;3.90;99.90;;;;;;5044384;28;19921;-75
2022/04/02 07:26:45;;;;;;;;;;;4.10;99.90;;;;;;5036052;28;19970;-77
2022/04/02 07:29:12;;;;;;;;;;;4.20;99.90;;;;;;5053513;28;19925;-81
2022/04/02 07:31:37;;;;;;;;;;;4.30;99.90;;;;;;5035434;28;19921;-76
2022/04/02 07:34:03;;;;;;;;;;;4.30;99.90;;;;;;5035003;28;20031;-76
2022/04/02 07:36:35;;;;;;;;;;;4.30;99.90;;;;;;5035050;28;19925;-77
2022/04/02 07:39:08;;;;;;;;;;;4.40;99.90;;;;;;5052696;28;19921;-76
2022/04/02 07:41:42;;;;;;;;;;;4.40;99.90;;;;;;5053407;28;19924;-76
2022/04/02 07:44:08;;;;;;;;;;;4.40;99.90;;;;;;5035385;28;19925;-76
2022/04/02 07:46:35;;;;;;;;;;;4.50;99.90;;;;;;5034749;28;19932;-76
2022/04/02 07:49:02;;;;;;;;;;;4.50;99.90;;;;;;5035109;28;19970;-76
2022/04/02 07:51:28;;;;;;;;;;;4.60;99.90;;;;;;5035063;28;20454;-76
2022/04/02 07:53:55;;;;;;;;;;;4.60;99.90;;;;;;5035132;28;20069;-80
2022/04/02 07:56:31;;;;;;;;;;;4.60;99.90;;;;;;5035118;28;19921;-76
2022/04/02 07:59:02;;;;;;;;;;;4.70;99.90;;;;;;5018986;28;20360;-74
2022/04/02 08:01:28;;;;;;;;;;;4.80;99.90;;;;;;5035401;28;19927;-75
2022/04/02 08:03:54;;;;;;;;;;;4.80;99.90;;;;;;5035759;28;19935;-76
2022/04/02 08:06:20;;;;;;;;;;;4.90;99.90;;;;;;5035130;28;19921;-77
2022/04/02 08:08:45;;;;;;;;;;;5.00;99.90;;;;;;5052624;28;20277;-75
2022/04/02 08:11:11;;;;;;;;;;;5.10;99.90;;;;;;5034392;28;19921;-74
2022/04/02 08:13:40;;;;;;;;;;;5.20;99.90;;;;;;5035240;28;19927;-76
2022/04/02 08:16:05;;;;;;;;;;;5.00;99.90;;;;;;5034984;28;19963;-76
2022/04/02 08:18:31;;;;;;;;;;;5.10;99.90;;;;;;5035531;28;19975;-77
2022/04/02 08:20:57;;;;;;;;;;;5.10;99.90;;;;;;5032697;28;20262;-76
2022/04/02 08:23:23;;;;;;;;;;;5.00;97.40;;;;;;5019815;28;19921;-76
2022/04/02 08:26:15;;;;;;;;;;;5.00;99.00;;;;;;5034372;28;20343;-77
2022/04/02 08:29:03;;;;;;;;;;;5.00;99.90;;;;;;5007131;28;19920;-77
2022/04/02 08:31:48;;;;;;;;;;;5.00;99.90;;;;;;5032256;28;20111;-76
2022/04/02 08:34:20;;;;;;;;;;;5.10;99.90;;;;;;5006577;28;20266;-76
2022/04/02 08:36:54;;;;;;;;;;;5.30;99.90;;;;;;5029141;28;19924;-76
2022/04/02 08:39:23;;;;;;;;;;;5.40;99.90;;;;;;5033104;28;19917;-76
2022/04/02 08:42:24;;;;;;;;;;;5.40;99.90;;;;;;5041328;28;19925;-78
2022/04/02 08:44:49;;;;;;;;;;;5.30;99.90;;;;;;4964182;28;20418;-76
2022/04/02 08:47:15;;;;;;;;;;;5.30;99.90;;;;;;5007416;28;19925;-76
2022/04/02 08:49:42;;;;;;;;;;;5.40;99.90;;;;;;5015065;28;20012;-76
2022/04/02 08:52:13;;;;;;;;;;;5.50;99.90;;;;;;5041311;28;19928;-75
2022/04/02 08:54:57;;;;;;;;;;;5.60;99.90;;;;;;5034933;28;19920;-76
2022/04/02 08:57:31;;;;;;;;;;;5.70;99.90;;;;;;5052234;28;19920;-76
2022/04/02 09:00:23;;;;;;;;;;;5.70;99.70;;;;;;5034447;28;20019;-76
2022/04/02 09:02:54;;;;;;;;;;;5.80;98.00;;;;;;5034285;28;19920;-79
2022/04/02 09:05:24;;;;;;;;;;;5.80;99.40;;;;;;5040028;28;20351;-76
2022/04/02 09:07:49;;;;;;;;;;;5.80;99.60;;;;;;5018307;28;19969;-76
2022/04/02 09:10:25;;;;;;;;;;;5.80;99.60;;;;;;5052095;28;20035;-76
2022/04/02 09:12:51;;;;;;;;;;;5.80;97.90;;;;;;5051374;28;19974;-74
2022/04/02 09:15:46;;;;;;;;;;;5.80;97.90;;;;;;5030346;28;19928;-75
2022/04/02 09:18:28;;;;;;;;;;;5.90;97.70;;;;;;5026150;28;19963;-76
2022/04/02 09:20:57;;;;;;;;;;;5.80;97.60;;;;;;5024327;28;20007;-78
2022/04/02 09:23:40;;;;;;;;;;;5.80;98.00;;;;;;5048277;28;20023;-77
2022/04/02 09:26:20;;;;;;;;;;;5.90;97.70;;;;;;5037311;28;19925;-77
2022/04/02 09:28:46;;;;;;;;;;;5.80;97.60;;;;;;5037683;28;19928;-76
2022/04/02 09:31:13;;;;;;;;;;;5.90;96.30;;;;;;5037703;28;19920;-76
2022/04/02 09:33:38;;;;;;;;;;;5.90;97.20;;;;;;5038129;28;19928;-79
2022/04/02 09:36:13;;;;;;;;;;;6.00;97.60;;;;;;5036985;28;19928;-79
2022/04/02 09:38:51;;;;;;;;;;;6.20;97.40;;;;;;5037790;28;19932;-81
2022/04/02 09:41:16;;;;;;;;;;;6.30;97.80;;;;;;5021283;28;19920;-77
2022/04/02 09:44:01;;;;;;;;;;;6.30;97.90;;;;;;5037656;28;19920;-77
2022/04/02 09:46:26;;;;;;;;;;;6.10;96.40;;;;;;5037852;28;19921;-77
2022/04/02 09:49:08;;;;;;;;;;;6.10;98.00;;;;;;5055297;28;20476;-77
2022/04/02 09:51:34;;;;;;;;;;;6.10;97.10;;;;;;5032583;28;19937;-77
2022/04/02 09:54:04;;;;;;;;;;;6.20;98.50;;;;;;5038864;28;19921;-76
2022/04/02 09:56:35;;;;;;;;;;;6.20;98.50;;;;;;5010412;28;19979;-77
2022/04/02 09:59:05;;;;;;;;;;;6.20;99.00;;;;;;5027129;28;19920;-77
2022/04/02 10:01:34;;;;;;;;;;;6.30;99.90;;;;;;5035399;28;19928;-77
2022/04/02 10:04:03;;;;;;;;;;;6.40;97.90;;;;;;5046393;28;19920;-78
2022/04/02 10:06:31;;;;;;;;;;;6.50;98.20;;;;;;5045010;28;19932;-79
2022/04/02 10:09:09;;;;;;;;;;;6.70;99.20;;;;;;5032426;28;20479;-77
2022/04/02 10:11:55;;;;;;;;;;;6.80;99.70;;;;;;5054026;28;19920;-77
2022/04/02 10:14:22;;;;;;;;;;;7.00;98.20;;;;;;5053927;28;20350;-77
2022/04/02 10:16:55;;;;;;;;;;;6.90;95.80;;;;;;5053448;28;19928;-77
2022/04/02 10:19:32;;;;;;;;;;;6.90;97.10;;;;;;5047345;28;20089;-82
2022/04/02 10:22:01;;;;;;;;;;;6.80;98.10;;;;;;5024131;28;19928;-77
2022/04/02 10:24:27;;;;;;;;;;;6.70;96.90;;;;;;5029592;28;19928;-76
2022/04/02 10:26:57;;;;;;;;;;;6.80;97.80;;;;;;5027362;28;19921;-76
2022/04/02 10:29:41;;;;;;;;;;;6.80;96.00;;;;;;5051177;28;19943;-76
2022/04/02 10:32:19;;;;;;;;;;;7.00;95.70;;;;;;5030612;28;19921;-75
2022/04/02 10:34:54;;;;;;;;;;;7.10;94.30;;;;;;5020351;28;19940;-77
2022/04/02 10:37:21;;;;;;;;;;;7.20;93.70;;;;;;5053018;28;20349;-76
2022/04/02 10:39:58;;;;;;;;;;;7.20;94.70;;;;;;5028575;28;20370;-75
2022/04/02 10:42:29;;;;;;;;;;;7.30;96.70;;;;;;5052196;28;19940;-75
2022/04/02 10:44:58;;;;;;;;;;;7.40;94.40;;;;;;5020437;28;19921;-75
2022/04/02 10:47:26;;;;;;;;;;;7.40;94.10;;;;;;5033717;28;19921;-76
2022/04/02 10:49:54;;;;;;;;;;;7.40;95.60;;;;;;5036737;28;19927;-75
2022/04/02 10:52:21;;;;;;;;;;;7.60;96.30;;;;;;5054027;28;19921;-74
2022/04/02 10:54:48;;;;;;;;;;;7.50;95.40;;;;;;5036663;28;20336;-77
2022/04/02 10:57:14;;;;;;;;;;;7.50;96.40;;;;;;5035572;28;19920;-77
2022/04/02 10:59:43;;;;;;;;;;;7.60;95.50;;;;;;5035691;28;19921;-77
2022/04/02 11:02:16;;;;;;;;;;;7.70;95.40;;;;;;5054461;28;20380;-76
2022/04/02 11:04:56;;;;;;;;;;;7.70;95.20;;;;;;5036675;28;19927;-78
2022/04/02 11:07:27;;;;;;;;;;;7.80;95.40;;;;;;5035903;28;19927;-74
2022/04/02 11:09:52;;;;;;;;;;;8.10;94.40;;;;;;5036346;28;20349;-75
2022/04/02 11:12:26;;;;;;;;;;;8.30;92.40;;;;;;5053766;28;20023;-78
2022/04/02 11:14:53;;;;;;;;;;;8.30;91.60;;;;;;5036947;28;20349;-76
2022/04/02 11:17:32;;;;;;;;;;;8.40;91.70;;;;;;5053300;28;19931;-78
2022/04/02 11:20:01;;;;;;;;;;;8.60;92.20;;;;;;5019888;28;19928;-76
2022/04/02 11:22:35;;;;;;;;;;;8.50;91.50;;;;;;5036449;28;19921;-75
2022/04/02 11:25:06;;;;;;;;;;;8.10;90.00;;;;;;5036391;28;20444;-76
2022/04/02 11:27:35;;;;;;;;;;;8.10;90.80;;;;;;5035781;28;19920;-76
2022/04/02 11:30:08;;;;;;;;;;;7.90;87.60;;;;;;5019714;28;20033;-76
2022/04/02 11:32:41;;;;;;;;;;;7.90;87.80;;;;;;5035472;28;19924;-79
2022/04/02 11:35:17;;;;;;;;;;;8.20;89.80;;;;;;5035947;28;19921;-77
2022/04/02 11:37:49;;;;;;;;;;;8.50;90.20;;;;;;5035810;28;19928;-77
2022/04/02 11:40:14;;;;;;;;;;;8.80;85.70;;;;;;5034276;28;20066;-81
2022/04/02 11:42:45;;;;;;;;;;;9.20;84.50;;;;;;5035965;28;20015;-77
2022/04/02 11:45:16;;;;;;;;;;;9.20;81.70;;;;;;5032571;28;19946;-76
2022/04/02 11:47:47;;;;;;;;;;;9.50;83.80;;;;;;5005682;28;20009;-79
2022/04/02 11:50:13;;;;;;;;;;;9.50;80.40;;;;;;5008057;28;19936;-76
2022/04/02 11:52:52;;;;;;;;;;;9.50;77.90;;;;;;5018285;28;19924;-84
2022/04/02 11:55:17;;;;;;;;;;;9.20;78.00;;;;;;5037367;28;20285;-78
2022/04/02 11:57:56;;;;;;;;;;;9.20;79.80;;;;;;5027535;28;19928;-79
2022/04/02 12:00:29;;;;;;;;;;;9.10;76.40;;;;;;5022702;28;19921;-78
2022/04/02 12:02:54;;;;;;;;;;;9.30;79.10;;;;;;5023860;28;20286;-79
2022/04/02 12:05:23;;;;;;;;;;;9.40;76.30;;;;;;5032767;28;19928;-77
2022/04/02 12:07:50;;;;;;;;;;;9.70;75.20;;;;;;5025654;28;20258;-80
2022/04/02 12:10:22;;;;;;;;;;;10.00;72.80;;;;;;5027114;28;20430;-77
2022/04/02 12:12:49;;;;;;;;;;;10.30;73.50;;;;;;5030208;28;19921;-77
2022/04/02 12:15:15;;;;;;;;;;;10.40;74.00;;;;;;5034633;28;19921;-77
2022/04/02 12:17:46;;;;;;;;;;;10.50;72.00;;;;;;5046651;28;20289;-76
2022/04/02 12:20:13;;;;;;;;;;;10.60;70.70;;;;;;5051656;28;20361;-77
2022/04/02 12:22:41;;;;;;;;;;;11.00;74.20;;;;;;5030285;28;20007;-80
2022/04/02 12:25:08;;;;;;;;;;;11.10;69.60;;;;;;5028577;28;19928;-75
2022/04/02 12:27:35;;;;;;;;;;;10.90;69.10;;;;;;5012610;28;19929;-76
2022/04/02 12:30:03;;;;;;;;;;;10.60;70.40;;;;;;5023185;28;19921;-75
2022/04/02 12:32:33;;;;;;;;;;;10.30;70.10;;;;;;5032456;28;20029;-76
2022/04/02 12:35:03;;;;;;;;;;;10.70;71.30;;;;;;5034615;28;19924;-77
2022/04/02 12:37:30;;;;;;;;;;;10.70;67.40;;;;;;5031228;28;19921;-76
2022/04/02 12:39:57;;;;;;;;;;;10.80;66.70;;;;;;5031612;28;20336;-76
2022/04/02 12:42:42;;;;;;;;;;;10.40;65.80;;;;;;5026081;28;19925;-74
2022/04/02 12:45:16;;;;;;;;;;;10.20;66.70;;;;;;5028587;28;19928;-75
2022/04/02 12:47:54;;;;;;;;;;;10.20;68.60;;;;;;5026990;28;19933;-79
2022/04/02 12:50:20;;;;;;;;;;;9.90;70.30;;;;;;5031012;28;19921;-75
2022/04/02 12:52:47;;;;;;;;;;;9.80;69.30;;;;;;5030907;28;19929;-75
2022/04/02 12:55:23;;;;;;;;;;;9.70;72.50;;;;;;5031099;28;19921;-77
2022/04/02 12:57:55;;;;;;;;;;;9.60;71.90;;;;;;5031441;28;19929;-78
2022/04/02 13:00:28;;;;;;;;;;;9.50;71.70;;;;;;5021529;28;19984;-75
2022/04/02 13:02:55;;;;;;;;;;;9.30;68.50;;;;;;5025881;28;19925;-75
2022/04/02 13:05:23;;;;;;;;;;;9.50;71.20;;;;;;5029698;28;19927;-75
2022/04/02 13:08:04;;;;;;;;;;;9.50;71.40;;;;;;5036533;28;19925;-75
2022/04/02 13:10:30;;;;;;;;;;;9.50;67.80;;;;;;5035357;28;19999;-77
2022/04/02 13:12:59;;;;;;;;;;;9.50;68.70;;;;;;5033412;28;19928;-77
2022/04/02 13:15:26;;;;;;;;;;;9.60;69.80;;;;;;5033317;28;20401;-76
2022/04/02 13:20:36;;;;;;;;;;;9.70;72.10;;;;;;5040715;28;19929;-76
2022/04/02 13:23:05;;;;;;;;;;;9.70;71.10;;;;;;5014140;28;19928;-76
2022/04/02 13:25:32;;;;;;;;;;;9.60;71.90;;;;;;5017828;28;20012;-76
2022/04/02 13:27:58;;;;;;;;;;;9.60;72.20;;;;;;5034336;28;19921;-74
2022/04/02 13:30:33;;;;;;;;;;;9.90;75.00;;;;;;5018439;28;19990;-80
2022/04/02 13:33:02;;;;;;;;;;;10.10;71.60;;;;;;5034382;28;19932;-76
2022/04/02 13:35:30;;;;;;;;;;;10.60;70.80;;;;;;5034304;28;19921;-76
2022/04/02 13:37:59;;;;;;;;;;;10.80;68.10;;;;;;5038258;28;20301;-77
2022/04/02 13:40:25;;;;;;;;;;;11.10;68.90;;;;;;5020861;28;20377;-78
2022/04/02 13:42:56;;;;;;;;;;;11.30;67.00;;;;;;5040132;28;19928;-76
2022/04/02 13:45:23;;;;;;;;;;;11.10;66.40;;;;;;5047004;28;19921;-79
2022/04/02 13:47:54;;;;;;;;;;;10.90;66.20;;;;;;5021202;28;19925;-78
2022/04/02 13:50:20;;;;;;;;;;;10.90;65.80;;;;;;5037870;28;19930;-76
2022/04/02 13:52:54;;;;;;;;;;;11.10;67.60;;;;;;5036986;28;19927;-76
2022/04/02 13:55:22;;;;;;;;;;;11.30;65.90;;;;;;5030309;28;20349;-75
2022/04/02 13:57:49;;;;;;;;;;;12.00;66.70;;;;;;5021058;28;19999;-76
2022/04/02 14:00:15;;;;;;;;;;;12.70;62.60;;;;;;5020964;28;19921;-77
2022/04/02 14:02:45;;;;;;;;;;;13.10;61.80;;;;;;5037788;28;19920;-77
2022/04/02 14:05:25;;;;;;;;;;;13.60;61.60;;;;;;5020933;28;19970;-77
2022/04/02 14:08:02;;;;;;;;;;;14.00;60.60;;;;;;5019244;28;20380;-76
2022/04/02 14:10:36;;;;;;;;;;;14.00;59.10;;;;;;5028520;28;19971;-77
2022/04/02 14:13:17;;;;;;;;;;;14.40;57.30;;;;;;5036912;28;20403;-76
2022/04/02 14:15:46;;;;;;;;;;;14.60;55.70;;;;;;5036487;28;19920;-80
2022/04/02 14:18:14;;;;;;;;;;;14.90;55.90;;;;;;5019834;28;19951;-75
2022/04/02 14:20:40;;;;;;;;;;;15.10;55.30;;;;;;5036136;28;19920;-76
2022/04/02 14:23:08;;;;;;;;;;;14.90;52.80;;;;;;5019960;28;19928;-76
2022/04/02 14:25:53;;;;;;;;;;;14.70;53.00;;;;;;5021647;28;19983;-75
2022/04/02 14:28:31;;;;;;;;;;;14.40;54.80;;;;;;5026092;28;20019;-77
2022/04/02 14:30:56;;;;;;;;;;;14.90;52.80;;;;;;5024666;28;19932;-74
2022/04/02 14:33:22;;;;;;;;;;;15.40;51.30;;;;;;5026930;28;19927;-73
2022/04/02 14:36:08;;;;;;;;;;;15.60;49.40;;;;;;5032678;28;19929;-77
2022/04/02 14:38:52;;;;;;;;;;;16.00;50.70;;;;;;5036888;28;20366;-77
2022/04/02 14:41:18;;;;;;;;;;;16.30;51.00;;;;;;5036423;28;19920;-75